Time;durP1;ratioP1;P1;durP2;ratioP2;P2;SDS_P1;SDS_P2;PMS_P1;PMS_P2;Temp;Humidity;BMP_temperature;BMP_pressure;BME280_temperature;BME280_humidity;BME280_pressure;Samples;Min_cycle;Max_cycle;Signal;HPM_P1;HPM_P2
2024/03/01 00:00:28;;;;;;;33.13;17.40;;;;;;;6.04;90.60;97103.91;5134820;23;20682;-85
2024/03/01 00:02:31;;;;;;;30.63;17.77;;;;;;;5.97;89.96;97112.97;5136167;23;20227;-84
2024/03/01 00:04:34;;;;;;;30.08;18.52;;;;;;;5.94;89.95;97108.84;5161742;23;20181;-84
2024/03/01 00:06:38;;;;;;;32.58;16.67;;;;;;;5.93;89.67;97111.53;5163921;22;20939;-84
2024/03/01 00:08:42;;;;;;;33.78;20.08;;;;;;;5.91;89.23;97108.22;5163665;23;20178;-84
2024/03/01 00:10:45;;;;;;;32.08;17.40;;;;;;;5.91;89.91;97105.63;5136690;23;20181;-84
2024/03/01 00:12:47;;;;;;;33.03;18.23;;;;;;;5.89;89.96;97117.84;5163244;23;20205;-84
2024/03/01 00:14:51;;;;;;;37.08;18.30;;;;;;;5.87;89.93;97114.53;5162461;23;20223;-85
2024/03/01 00:16:55;;;;;;;36.28;18.02;;;;;;;5.89;90.40;97125.59;5161520;23;20202;-84
2024/03/01 00:18:58;;;;;;;32.08;18.05;;;;;;;5.89;90.26;97123.00;5188190;22;20198;-87
2024/03/01 00:21:01;;;;;;;32.38;17.77;;;;;;;5.88;89.82;97122.19;5136797;23;20182;-87
2024/03/01 00:23:06;;;;;;;31.65;17.63;;;;;;;5.86;90.45;97118.84;5161057;23;20210;-87
2024/03/01 00:25:09;;;;;;;34.45;19.02;;;;;;;5.86;90.39;97120.63;5162871;23;20175;-87
2024/03/01 00:27:13;;;;;;;32.95;17.58;;;;;;;5.80;89.41;97121.03;5163974;22;20266;-87
2024/03/01 00:29:15;;;;;;;31.15;16.50;;;;;;;5.73;89.64;97117.97;5163828;22;20170;-87
2024/03/01 00:31:18;;;;;;;34.03;19.50;;;;;;;5.68;90.28;97125.22;5163978;22;20179;-87
2024/03/01 00:33:22;;;;;;;27.10;16.23;;;;;;;5.70;90.00;97115.59;5162886;23;20230;-87
2024/03/01 00:35:25;;;;;;;34.95;18.52;;;;;;;5.71;89.72;97122.44;5163042;22;20221;-87
2024/03/01 00:37:28;;;;;;;28.90;17.25;;;;;;;5.70;89.45;97119.94;5163190;23;20446;-87
2024/03/01 00:39:33;;;;;;;32.38;18.20;;;;;;;5.70;89.57;97127.72;5136298;23;20205;-87
2024/03/01 00:41:36;;;;;;;30.95;16.60;;;;;;;5.68;91.08;97117.47;5161644;23;20590;-87
2024/03/01 00:43:39;;;;;;;29.95;17.45;;;;;;;5.67;91.38;97122.72;5162027;23;20226;-87
2024/03/01 00:45:43;;;;;;;42.97;20.02;;;;;;;5.70;91.62;97128.53;5137063;23;20174;-87
2024/03/01 00:47:47;;;;;;;39.33;20.75;;;;;;;5.74;93.04;97136.94;5163611;23;20229;-87
2024/03/01 00:49:50;;;;;;;37.97;19.27;;;;;;;5.79;93.25;97140.91;5163806;23;20175;-87
2024/03/01 00:51:52;;;;;;;39.72;20.98;;;;;;;5.85;93.23;97140.50;5138384;23;20178;-87
2024/03/01 00:53:56;;;;;;;33.15;17.80;;;;;;;5.86;92.83;97136.16;5160832;23;20184;-87
2024/03/01 00:56:00;;;;;;;36.40;18.98;;;;;;;5.82;92.22;97132.94;5161221;23;20180;-87
2024/03/01 00:58:04;;;;;;;32.70;17.85;;;;;;;5.80;91.70;97126.19;5138086;23;20293;-87
2024/03/01 01:00:09;;;;;;;33.88;18.23;;;;;;;5.84;91.18;97130.25;5137313;23;20202;-87
2024/03/01 01:02:12;;;;;;;36.22;19.73;;;;;;;5.80;90.90;97124.47;5137681;23;20186;-87
2024/03/01 01:04:15;;;;;;;34.45;17.88;;;;;;;5.76;90.49;97119.59;5161998;23;20177;-87
2024/03/01 01:06:19;;;;;;;30.50;17.33;;;;;;;5.70;90.63;97112.19;5160327;23;20267;-87
2024/03/01 01:08:24;;;;;;;27.45;16.45;;;;;;;5.62;90.57;97104.94;5163788;22;20186;-87
2024/03/01 01:10:28;;;;;;;26.65;16.45;;;;;;;5.55;88.92;97102.84;5163437;22;20183;-86
2024/03/01 01:12:32;;;;;;;28.70;16.00;;;;;;;5.47;89.17;97104.25;5138087;23;20179;-88
2024/03/01 01:14:36;;;;;;;33.22;16.65;;;;;;;5.43;88.96;97101.03;5136934;23;20180;-86
2024/03/01 01:16:39;;;;;;;29.23;15.82;;;;;;;5.38;89.49;97110.84;5135757;23;20187;-87
2024/03/01 01:18:42;;;;;;;31.35;16.88;;;;;;;5.41;89.62;97112.38;5161543;23;20173;-87
2024/03/01 01:20:45;;;;;;;33.92;17.73;;;;;;;5.39;90.41;97107.31;5164025;22;20564;-87
2024/03/01 01:22:49;;;;;;;29.17;16.75;;;;;;;5.40;90.77;97108.97;5138113;23;20643;-87
2024/03/01 01:24:52;;;;;;;30.20;17.15;;;;;;;5.37;90.89;97106.59;5162893;23;20203;-87
2024/03/01 01:26:56;;;;;;;30.63;16.70;;;;;;;5.37;90.18;97106.59;5136955;23;20179;-87
2024/03/01 01:29:02;;;;;;;32.85;18.08;;;;;;;5.35;90.43;97098.13;5137197;23;20684;-87
2024/03/01 01:31:07;;;;;;;32.13;17.45;;;;;;;5.31;90.93;97098.41;5136930;23;20235;-87
2024/03/01 01:33:10;;;;;;;31.23;17.13;;;;;;;5.31;90.67;97101.00;5137985;23;20171;-86
2024/03/01 01:35:13;;;;;;;27.98;17.15;;;;;;;5.33;90.63;97099.94;5136470;23;20278;-87
2024/03/01 01:37:17;;;;;;;30.63;17.57;;;;;;;5.32;90.79;97106.06;5162071;22;20815;-87
2024/03/01 01:39:22;;;;;;;30.05;17.05;;;;;;;5.29;91.02;97100.25;5137450;23;20637;-87
2024/03/01 01:41:25;;;;;;;29.02;16.70;;;;;;;5.30;90.59;97107.06;5162955;23;20229;-87
2024/03/01 01:43:29;;;;;;;31.50;17.45;;;;;;;5.29;90.85;97103.69;5162621;23;20210;-87
2024/03/01 01:45:34;;;;;;;28.85;16.55;;;;;;;5.30;91.56;97107.91;5162571;22;20268;-87
2024/03/01 01:47:37;;;;;;;30.35;17.15;;;;;;;5.30;91.21;97105.31;5136848;23;20175;-87
2024/03/01 01:49:41;;;;;;;31.05;16.95;;;;;;;5.32;90.24;97100.03;5162420;23;20256;-87
2024/03/01 01:51:44;;;;;;;30.75;16.85;;;;;;;5.28;90.90;97096.03;5137480;23;20237;-87
2024/03/01 01:53:47;;;;;;;32.38;16.95;;;;;;;5.26;90.22;97088.38;5161075;23;20505;-87
2024/03/01 01:55:51;;;;;;;32.33;17.05;;;;;;;5.23;89.87;97087.69;5161899;23;20181;-87
2024/03/01 01:57:53;;;;;;;28.58;17.10;;;;;;;5.19;89.57;97091.44;5162841;23;20173;-87
2024/03/01 01:59:58;;;;;;;30.83;16.50;;;;;;;5.19;90.68;97086.25;5138574;23;20206;-87
2024/03/01 02:02:04;;;;;;;33.10;17.33;;;;;;;5.20;90.37;97087.91;5138224;23;20175;-87
2024/03/01 02:04:06;;;;;;;30.98;17.25;;;;;;;5.18;89.73;97084.59;5137412;23;20174;-87
2024/03/01 02:06:11;;;;;;;32.00;16.73;;;;;;;5.14;90.42;97086.56;5159628;23;20682;-87
2024/03/01 02:08:15;;;;;;;35.03;17.48;;;;;;;5.15;90.23;97079.63;5137203;23;20185;-87
2024/03/01 02:10:20;;;;;;;29.63;16.88;;;;;;;5.14;90.82;97083.97;5163325;22;20198;-87
2024/03/01 02:12:24;;;;;;;28.83;16.80;;;;;;;5.15;90.79;97087.38;5137816;23;20199;-86
2024/03/01 02:14:28;;;;;;;33.90;18.40;;;;;;;5.12;91.11;97076.41;5138298;23;20177;-87
2024/03/01 02:16:31;;;;;;;31.02;17.58;;;;;;;5.11;91.19;97077.31;5162791;22;20182;-87
2024/03/01 02:18:36;;;;;;;32.88;17.92;;;;;;;5.12;91.37;97063.50;5162884;23;20205;-87
2024/03/01 02:20:48;;;;;;;32.08;17.10;;;;;;;5.13;91.62;97062.53;5163056;23;20197;-86
2024/03/01 02:22:56;;;;;;;33.67;17.80;;;;;;;5.10;90.59;97062.75;5163092;23;20159;-86
2024/03/01 02:25:01;;;;;;;31.75;17.27;;;;;;;5.09;90.81;97061.09;5164410;23;20504;-86
2024/03/01 02:27:05;;;;;;;33.47;18.77;;;;;;;5.07;91.16;97060.38;5163067;23;20551;-87
2024/03/01 02:29:09;;;;;;;35.40;17.20;;;;;;;5.06;91.56;97054.38;5138070;23;20182;-86
2024/03/01 02:31:11;;;;;;;32.38;17.65;;;;;;;5.06;91.10;97054.38;5163641;22;20839;-86
2024/03/01 02:33:15;;;;;;;44.10;19.77;;;;;;;5.06;91.36;97058.72;5161696;23;20181;-86
2024/03/01 02:35:19;;;;;;;36.30;19.17;;;;;;;5.07;92.04;97056.03;5162110;23;20538;-86
2024/03/01 02:37:22;;;;;;;34.75;18.25;;;;;;;5.05;90.92;97063.06;5136508;23;20201;-86
2024/03/01 02:39:25;;;;;;;32.30;17.48;;;;;;;5.06;90.99;97056.13;5160714;23;20177;-84
2024/03/01 02:41:30;;;;;;;30.52;17.85;;;;;;;5.06;92.23;97054.38;5137398;23;20516;-84
2024/03/01 02:43:33;;;;;;;34.33;17.92;;;;;;;5.08;91.23;97051.69;5163458;22;20251;-84
2024/03/01 02:45:37;;;;;;;33.80;18.67;;;;;;;5.06;92.28;97048.38;5160511;23;20181;-84
2024/03/01 02:47:40;;;;;;;34.15;16.80;;;;;;;5.08;91.49;97041.34;5160864;23;21266;-84
2024/03/01 02:49:44;;;;;;;35.28;17.48;;;;;;;5.08;92.02;97036.19;5161958;23;20174;-84
2024/03/01 02:51:47;;;;;;;30.85;18.20;;;;;;;5.05;92.37;97044.13;5136545;23;20272;-84
2024/03/01 02:53:50;;;;;;;33.72;18.27;;;;;;;5.07;92.04;97044.88;5163361;22;20174;-84
2024/03/01 02:55:52;;;;;;;33.92;18.33;;;;;;;5.08;92.80;97041.34;5135531;23;20186;-84
2024/03/01 02:57:57;;;;;;;34.42;17.52;;;;;;;5.12;92.52;97037.66;5161719;23;20225;-84
2024/03/01 03:00:02;;;;;;;29.25;16.85;;;;;;;5.13;92.78;97040.16;5163640;22;20201;-84
2024/03/01 03:02:07;;;;;;;35.05;18.13;;;;;;;5.13;92.37;97040.16;5162183;23;20171;-84
2024/03/01 03:04:09;;;;;;;34.35;19.65;;;;;;;5.16;92.04;97052.88;5160655;23;20275;-84
2024/03/01 03:06:13;;;;;;;40.25;17.92;;;;;;;5.18;93.31;97069.09;5161354;23;20620;-84
2024/03/01 03:08:17;;;;;;;35.20;18.48;;;;;;;5.20;93.08;97060.31;5137069;23;20178;-84
2024/03/01 03:10:20;;;;;;;30.13;17.63;;;;;;;5.22;93.05;97063.63;5162050;23;20173;-84
2024/03/01 03:12:22;;;;;;;28.48;16.83;;;;;;;5.23;93.26;97065.31;5162911;22;20173;-84
2024/03/01 03:14:27;;;;;;;29.00;17.10;;;;;;;5.23;92.43;97057.53;5135312;23;20206;-84
2024/03/01 03:16:30;;;;;;;31.50;18.00;;;;;;;5.20;92.77;97068.06;5135253;23;20175;-84
2024/03/01 03:18:33;;;;;;;31.88;18.25;;;;;;;5.21;92.74;97069.72;5161900;23;20178;-84
2024/03/01 03:20:36;;;;;;;30.35;17.55;;;;;;;5.20;92.54;97072.41;5163642;23;20242;-84
2024/03/01 03:22:40;;;;;;;30.58;18.13;;;;;;;5.24;92.98;97084.22;5161469;23;20192;-84
2024/03/01 03:24:43;;;;;;;30.52;17.80;;;;;;;5.27;93.15;97074.50;5135635;23;20182;-84
2024/03/01 03:26:47;;;;;;;37.08;18.65;;;;;;;5.28;92.72;97072.75;5134916;23;20171;-84
2024/03/01 03:28:50;;;;;;;35.90;18.50;;;;;;;5.32;93.31;97076.78;5163638;23;20173;-84
2024/03/01 03:30:54;;;;;;;28.70;16.50;;;;;;;5.31;91.79;97080.31;5135804;23;20174;-84
2024/03/01 03:32:57;;;;;;;32.00;17.33;;;;;;;5.22;91.45;97060.22;5161995;23;20809;-84
2024/03/01 03:35:01;;;;;;;33.55;17.10;;;;;;;5.14;91.23;97067.63;5161238;23;20182;-84
2024/03/01 03:37:04;;;;;;;32.78;17.35;;;;;;;5.10;91.43;97061.00;5134572;23;20177;-84
2024/03/01 03:39:09;;;;;;;29.52;16.67;;;;;;;5.08;91.60;97055.09;5163596;23;20205;-84
2024/03/01 03:41:12;;;;;;;33.95;18.40;;;;;;;5.11;91.65;97051.50;5161579;23;20238;-84
2024/03/01 03:43:16;;;;;;;33.70;16.70;;;;;;;5.11;92.04;97054.06;5164461;22;20261;-84
2024/03/01 03:45:19;;;;;;;28.48;16.27;;;;;;;5.12;91.93;97053.16;5161019;23;20201;-84
2024/03/01 03:47:24;;;;;;;30.77;16.30;;;;;;;5.13;92.28;97046.13;5162570;23;20177;-84
2024/03/01 03:49:27;;;;;;;29.90;16.58;;;;;;;5.13;92.69;97043.53;5163653;22;20173;-87
2024/03/01 03:51:30;;;;;;;31.40;16.95;;;;;;;5.16;92.30;97051.09;5137361;23;20181;-87
2024/03/01 03:53:33;;;;;;;32.28;17.40;;;;;;;5.18;93.10;97051.00;5164160;23;20177;-87
2024/03/01 03:55:36;;;;;;;32.95;18.38;;;;;;;5.17;92.21;97063.09;5162553;23;20236;-87
2024/03/01 03:57:38;;;;;;;30.58;16.85;;;;;;;5.14;92.36;97071.06;5163121;23;20178;-87
2024/03/01 03:59:42;;;;;;;28.60;16.27;;;;;;;5.13;92.42;97071.16;5162088;23;20179;-87
2024/03/01 04:01:45;;;;;;;29.80;17.77;;;;;;;5.13;92.55;97073.72;5137288;23;20612;-86
2024/03/01 04:03:50;;;;;;;33.25;17.23;;;;;;;5.18;93.12;97079.44;5137470;23;20623;-86
2024/03/01 04:05:52;;;;;;;33.45;18.50;;;;;;;5.20;92.50;97072.41;5137284;23;20198;-86
2024/03/01 04:07:56;;;;;;;33.95;18.27;;;;;;;5.23;93.54;97078.22;5163717;23;20186;-87
2024/03/01 04:09:59;;;;;;;32.00;17.70;;;;;;;5.25;93.68;97086.69;5162202;23;20269;-86
2024/03/01 04:12:05;;;;;;;34.90;18.90;;;;;;;5.29;93.18;97084.72;5162715;23;20173;-86
2024/03/01 04:14:09;;;;;;;30.20;17.15;;;;;;;5.33;92.96;97091.38;5136713;23;20658;-86
2024/03/01 04:16:12;;;;;;;30.77;16.95;;;;;;;5.34;93.25;97093.88;5134940;23;20199;-86
2024/03/01 04:18:17;;;;;;;30.30;17.40;;;;;;;5.36;93.35;97097.16;5163109;23;20809;-87
2024/03/01 04:20:22;;;;;;;30.25;17.58;;;;;;;5.38;93.47;97100.50;5164222;23;20187;-86
2024/03/01 04:22:26;;;;;;;37.70;19.08;;;;;;;5.39;93.18;97104.72;5136572;23;20178;-87
2024/03/01 04:24:29;;;;;;;36.95;19.80;;;;;;;5.42;93.58;97103.72;5164424;22;20184;-87
2024/03/01 04:26:32;;;;;;;35.03;18.25;;;;;;;5.43;93.43;97106.19;5160043;23;20174;-87
2024/03/01 04:28:39;;;;;;;36.92;19.27;;;;;;;5.44;93.33;97118.22;5163372;23;20182;-88
2024/03/01 04:30:42;;;;;;;35.28;18.77;;;;;;;5.47;93.52;97112.00;5162611;23;20178;-87
2024/03/01 04:32:46;;;;;;;30.60;17.85;;;;;;;5.47;93.89;97123.16;5138174;23;20205;-87
2024/03/01 04:34:48;;;;;;;32.97;17.77;;;;;;;5.44;93.32;97123.38;5137895;23;20179;-86
2024/03/01 04:36:57;;;;;;;33.00;18.27;;;;;;;5.48;93.51;97129.19;5161441;23;20583;-86
2024/03/01 04:39:03;;;;;;;37.15;19.40;;;;;;;5.53;93.51;97134.88;5163296;23;20177;-87
2024/03/01 04:41:06;;;;;;;35.03;19.35;;;;;;;5.56;93.44;97138.09;5182164;22;20201;-87
2024/03/01 04:43:10;;;;;;;34.75;18.63;;;;;;;5.58;93.42;97138.84;5138321;23;20184;-87
2024/03/01 04:45:12;;;;;;;32.53;17.42;;;;;;;5.57;93.49;97134.59;5161029;23;20170;-86
2024/03/01 04:47:16;;;;;;;30.13;17.35;;;;;;;5.58;93.48;97131.06;5189487;22;20264;-87
2024/03/01 04:49:19;;;;;;;32.00;19.20;;;;;;;5.62;93.75;97132.53;5161124;23;20178;-86
2024/03/01 04:51:24;;;;;;;31.08;17.35;;;;;;;5.62;93.15;97141.13;5138190;23;20258;-87
2024/03/01 04:53:28;;;;;;;32.75;18.33;;;;;;;5.63;93.15;97141.94;5188170;22;20204;-87
2024/03/01 04:55:32;;;;;;;33.47;18.83;;;;;;;5.63;93.57;97139.34;5161864;23;20655;-87
2024/03/01 04:57:35;;;;;;;36.90;18.92;;;;;;;5.61;93.73;97139.47;5162324;23;20626;-87
2024/03/01 04:59:39;;;;;;;42.38;21.00;;;;;;;5.61;93.75;97139.47;5162175;23;20179;-87
2024/03/01 05:01:43;;;;;;;37.65;19.17;;;;;;;5.63;93.17;97152.28;5161522;23;20219;-87
2024/03/01 05:03:45;;;;;;;37.83;19.55;;;;;;;5.63;93.30;97147.94;5137905;23;20171;-87
2024/03/01 05:05:48;;;;;;;36.72;18.92;;;;;;;5.64;93.88;97154.78;5160992;23;20201;-87
2024/03/01 05:07:51;;;;;;;33.47;17.98;;;;;;;5.65;93.35;97153.84;5162653;23;20658;-87
2024/03/01 05:09:56;;;;;;;33.58;18.45;;;;;;;5.65;93.59;97151.28;5137661;23;20182;-87
2024/03/01 05:11:59;;;;;;;36.10;19.92;;;;;;;5.66;93.55;97152.09;5163386;23;20289;-87
2024/03/01 05:14:03;;;;;;;36.63;19.73;;;;;;;5.67;93.80;97153.75;5161766;23;20181;-87
2024/03/01 05:16:07;;;;;;;39.50;19.75;;;;;;;5.71;93.64;97143.13;5161573;23;20162;-87
2024/03/01 05:18:11;;;;;;;31.52;18.98;;;;;;;5.73;93.55;97150.78;5162872;23;20568;-87
2024/03/01 05:20:14;;;;;;;33.75;18.10;;;;;;;5.72;93.61;97154.28;5190466;22;20183;-87
2024/03/01 05:22:18;;;;;;;34.15;18.83;;;;;;;5.75;93.60;97159.28;5162645;23;20203;-87
2024/03/01 05:24:21;;;;;;;33.72;19.88;;;;;;;5.76;93.75;97160.97;5138525;23;20185;-86
2024/03/01 05:26:27;;;;;;;34.72;18.88;;;;;;;5.78;93.38;97156.50;5160714;23;20179;-87
2024/03/01 05:28:31;;;;;;;40.80;21.27;;;;;;;5.78;93.58;97159.91;5189415;22;20196;-86
2024/03/01 05:30:35;;;;;;;35.85;20.00;;;;;;;5.79;93.45;97161.59;5136865;23;20210;-86
2024/03/01 05:32:51;;;;;;;33.58;19.02;;;;;;;5.78;94.17;97157.34;5136233;23;20158;-89
2024/03/01 05:34:56;;;;;;;36.30;20.08;;;;;;;5.79;93.05;97153.00;5137821;23;20179;-89
2024/03/01 05:36:59;;;;;;;32.38;17.90;;;;;;;5.79;93.55;97155.59;5162206;23;20505;-89
2024/03/01 05:39:15;;;;;;;31.08;18.13;;;;;;;5.80;93.62;97155.50;5163097;23;20394;-89
2024/03/01 05:41:22;;;;;;;37.15;18.95;;;;;;;5.81;93.26;97162.31;5136900;23;20193;-88
2024/03/01 05:43:26;;;;;;;39.92;20.15;;;;;;;5.79;93.02;97160.78;5135804;23;20268;-90
2024/03/01 05:45:30;;;;;;;34.13;19.63;;;;;;;5.78;93.28;97172.03;5136205;23;20178;-88
2024/03/01 05:47:34;;;;;;;34.90;18.58;;;;;;;5.78;93.27;97174.63;5189709;22;20184;-88
2024/03/01 05:49:39;;;;;;;32.88;16.73;;;;;;;5.73;93.40;97172.28;5137123;23;20162;-88
2024/03/01 05:51:44;;;;;;;33.58;19.10;;;;;;;5.73;93.44;97176.66;5162322;23;20221;-86
2024/03/01 05:53:47;;;;;;;30.40;17.73;;;;;;;5.74;93.72;97178.31;5189318;22;20173;-86
2024/03/01 05:55:49;;;;;;;35.80;19.00;;;;;;;5.76;93.31;97187.66;5161223;23;20182;-87
2024/03/01 05:57:53;;;;;;;36.78;21.25;;;;;;;5.78;93.62;97183.19;5136628;23;20314;-86
2024/03/01 05:59:57;;;;;;;37.20;20.08;;;;;;;5.78;93.38;97188.38;5137957;23;20513;-87
2024/03/01 06:02:01;;;;;;;37.47;19.40;;;;;;;5.78;93.36;97192.72;5137487;23;20773;-87
2024/03/01 06:04:10;;;;;;;36.72;19.17;;;;;;;5.78;93.04;97187.56;5137851;23;20228;-86
2024/03/01 06:06:15;;;;;;;37.67;20.20;;;;;;;5.77;93.74;97184.16;5135383;23;20314;-86
2024/03/01 06:08:18;;;;;;;43.60;21.05;;;;;;;5.76;93.31;97192.81;5163036;23;20201;-86
2024/03/01 06:10:22;;;;;;;35.33;20.90;;;;;;;5.77;93.73;97188.47;5136406;23;20258;-86
2024/03/01 06:12:25;;;;;;;38.40;21.40;;;;;;;5.77;93.47;97193.63;5189687;22;20630;-87
2024/03/01 06:14:28;;;;;;;41.88;21.52;;;;;;;5.77;94.10;97188.47;5162524;23;20173;-87
2024/03/01 06:16:34;;;;;;;38.90;21.33;;;;;;;5.77;93.51;97184.16;5161339;23;20288;-86
2024/03/01 06:18:38;;;;;;;39.58;21.23;;;;;;;5.81;94.07;97197.69;5161218;23;20170;-86
2024/03/01 06:20:41;;;;;;;39.40;22.02;;;;;;;5.83;94.08;97193.25;5162462;23;20260;-89
2024/03/01 06:22:44;;;;;;;36.50;21.45;;;;;;;5.85;94.49;97191.38;5138347;23;20202;-88
2024/03/01 06:24:47;;;;;;;37.72;21.77;;;;;;;5.87;93.85;97190.38;5137981;23;20257;-88
2024/03/01 06:26:54;;;;;;;48.30;22.52;;;;;;;5.90;93.65;97199.69;5137664;23;20178;-89
2024/03/01 06:28:57;;;;;;;37.75;20.77;;;;;;;5.92;93.87;97197.84;5163364;23;20253;-89
2024/03/01 06:31:00;;;;;;;38.97;21.30;;;;;;;5.93;93.92;97202.09;5136451;23;20203;-89
2024/03/01 06:33:05;;;;;;;37.78;20.67;;;;;;;5.95;93.95;97202.81;5137622;23;20208;-88
2024/03/01 06:35:08;;;;;;;37.72;22.02;;;;;;;5.97;93.67;97211.28;5162665;23;20197;-88
2024/03/01 06:37:11;;;;;;;37.40;20.25;;;;;;;5.96;93.44;97210.47;5136739;23;20274;-89
2024/03/01 06:39:16;;;;;;;35.25;22.40;;;;;;;5.98;93.43;97216.38;5161346;23;20185;-90
2024/03/01 06:41:18;;;;;;;43.20;20.90;;;;;;;5.99;93.49;97204.28;5163209;23;20211;-87
2024/03/01 06:43:21;;;;;;;43.67;22.58;;;;;;;6.03;93.17;97216.94;5164361;23;20277;-88
2024/03/01 06:45:25;;;;;;;40.53;22.17;;;;;;;6.02;92.91;97207.50;5162970;23;20206;-87
2024/03/01 06:47:30;;;;;;;42.78;22.08;;;;;;;6.04;92.41;97208.22;5135384;23;20185;-86
2024/03/01 06:49:35;;;;;;;46.30;23.23;;;;;;;6.05;93.34;97202.13;5158539;23;20178;-86
2024/03/01 06:51:38;;;;;;;41.20;23.23;;;;;;;6.06;93.18;97210.72;5136069;23;20250;-86
2024/03/01 06:53:43;;;;;;;42.70;24.10;;;;;;;6.09;93.37;97212.19;5188523;22;20261;-86
2024/03/01 06:55:46;;;;;;;43.80;23.20;;;;;;;6.12;93.39;97211.97;5162320;23;20170;-86
2024/03/01 06:57:49;;;;;;;38.10;21.25;;;;;;;6.16;93.43;97215.19;5136039;23;20575;-87
2024/03/01 06:59:52;;;;;;;37.80;22.67;;;;;;;6.21;93.18;97215.75;5136571;23;20184;-87
2024/03/01 07:01:56;;;;;;;40.45;21.98;;;;;;;6.25;93.51;97206.81;5188500;22;20244;-89
2024/03/01 07:03:59;;;;;;;41.20;21.90;;;;;;;6.28;93.16;97216.97;5134538;23;20280;-88
2024/03/01 07:06:06;;;;;;;39.65;21.25;;;;;;;6.30;94.00;97210.78;5160603;23;20701;-88
2024/03/01 07:08:09;;;;;;;36.65;19.60;;;;;;;6.34;93.45;97212.22;5187364;22;20266;-87
2024/03/01 07:10:14;;;;;;;38.10;21.25;;;;;;;6.38;93.63;97215.47;5160934;23;20180;-88
2024/03/01 07:12:17;;;;;;;38.97;20.48;;;;;;;6.40;93.43;97209.22;5135111;23;20178;-86
2024/03/01 07:14:21;;;;;;;39.95;22.65;;;;;;;6.43;93.21;97210.81;5185857;22;20267;-88
2024/03/01 07:16:24;;;;;;;37.88;22.10;;;;;;;6.47;93.11;97213.09;5160753;23;20187;-89
2024/03/01 07:18:28;;;;;;;40.38;21.83;;;;;;;6.50;93.57;97212.88;5189436;22;20552;-84
2024/03/01 07:20:31;;;;;;;41.72;21.42;;;;;;;6.52;93.89;97208.41;5161498;23;20178;-83
2024/03/01 07:22:36;;;;;;;41.42;23.77;;;;;;;6.54;93.93;97204.00;5137383;23;20300;-83
2024/03/01 07:24:38;;;;;;;40.22;22.60;;;;;;;6.57;93.59;97209.78;5188838;22;20243;-83
2024/03/01 07:26:41;;;;;;;39.42;21.42;;;;;;;6.61;93.82;97200.03;5186719;22;20304;-83
2024/03/01 07:28:44;;;;;;;45.33;22.55;;;;;;;6.65;94.62;97198.91;5162678;23;20183;-83
2024/03/01 07:30:47;;;;;;;40.08;22.67;;;;;;;6.71;94.20;97201.09;5162012;23;20181;-83
2024/03/01 07:32:50;;;;;;;39.90;21.15;;;;;;;6.77;94.68;97205.84;5163516;23;20659;-83
2024/03/01 07:34:53;;;;;;;40.50;22.30;;;;;;;6.82;94.45;97203.78;5139542;23;20618;-83
2024/03/01 07:36:56;;;;;;;45.00;25.13;;;;;;;6.87;93.01;97199.94;5163757;23;20192;-83
2024/03/01 07:39:01;;;;;;;39.50;23.48;;;;;;;6.92;94.26;97199.66;5191469;22;20173;-83
2024/03/01 07:41:04;;;;;;;44.15;22.70;;;;;;;6.96;93.49;97207.09;5139218;23;20178;-83
2024/03/01 07:43:07;;;;;;;39.38;21.45;;;;;;;7.03;93.92;97199.72;5163577;23;20193;-83
2024/03/01 07:45:12;;;;;;;40.35;21.75;;;;;;;7.06;94.11;97206.34;5138902;23;20406;-83
2024/03/01 07:47:15;;;;;;;40.60;21.73;;;;;;;7.11;93.99;97206.88;5164446;23;20169;-83
2024/03/01 07:49:18;;;;;;;38.88;21.20;;;;;;;7.18;94.48;97208.09;5163903;23;20201;-83
2024/03/01 07:51:22;;;;;;;39.83;22.10;;;;;;;7.23;94.45;97206.03;5138419;23;20177;-83
2024/03/01 07:53:25;;;;;;;37.90;20.77;;;;;;;7.29;93.49;97200.41;5138193;23;20182;-83
2024/03/01 07:55:30;;;;;;;43.88;22.65;;;;;;;7.35;93.09;97200.00;5161420;23;20667;-83
2024/03/01 07:57:34;;;;;;;40.20;22.98;;;;;;;7.37;93.51;97198.13;5162515;23;20180;-83
2024/03/01 07:59:36;;;;;;;39.13;22.23;;;;;;;7.41;93.83;97199.53;5138028;23;20171;-83
2024/03/01 08:01:40;;;;;;;39.83;22.70;;;;;;;7.48;94.36;97207.75;5162930;23;20256;-83
2024/03/01 08:03:44;;;;;;;41.03;22.48;;;;;;;7.51;94.60;97208.34;5136488;23;20698;-83
2024/03/01 08:05:47;;;;;;;40.30;22.75;;;;;;;7.53;94.52;97209.91;5186934;22;20199;-83
2024/03/01 08:07:50;;;;;;;39.58;22.23;;;;;;;7.61;94.43;97206.78;5162846;23;20621;-83
2024/03/01 08:09:53;;;;;;;43.63;23.75;;;;;;;7.67;94.87;97206.34;5162397;23;20184;-83
2024/03/01 08:11:58;;;;;;;40.97;22.60;;;;;;;7.74;94.97;97200.59;5162590;23;20676;-83
2024/03/01 08:14:05;;;;;;;39.90;23.58;;;;;;;7.82;94.81;97205.22;5160915;23;20169;-83
2024/03/01 08:16:10;;;;;;;42.30;24.52;;;;;;;7.88;95.06;97203.03;5161282;23;20184;-83
2024/03/01 08:18:16;;;;;;;43.00;25.88;;;;;;;7.96;95.57;97202.47;5162449;23;20257;-83
2024/03/01 08:20:34;;;;;;;38.97;23.35;;;;;;;8.00;95.09;97207.34;5136942;23;20722;-83
2024/03/01 08:22:38;;;;;;;45.30;26.20;;;;;;;8.06;95.53;97199.09;5162474;23;20181;-83
2024/03/01 08:24:42;;;;;;;46.53;27.65;;;;;;;8.15;94.34;97208.84;5159878;23;20206;-83
2024/03/01 08:26:46;;;;;;;39.97;23.17;;;;;;;8.22;95.42;97199.66;5189043;22;20180;-83
2024/03/01 08:28:51;;;;;;;40.47;24.00;;;;;;;8.31;94.33;97207.59;5138739;23;20729;-83
2024/03/01 08:30:54;;;;;;;40.75;23.90;;;;;;;8.37;94.84;97212.34;5137916;23;20272;-83
2024/03/01 08:32:58;;;;;;;40.85;23.17;;;;;;;8.45;96.09;97221.25;5164233;23;20176;-83
2024/03/01 08:35:02;;;;;;;42.65;23.55;;;;;;;8.53;94.88;97220.69;5139002;23;20257;-83
2024/03/01 08:37:05;;;;;;;42.70;23.90;;;;;;;8.58;94.88;97226.34;5188799;22;20179;-83
2024/03/01 08:39:15;;;;;;;41.85;23.08;;;;;;;8.63;95.32;97221.63;5163687;23;20277;-83
2024/03/01 08:41:20;;;;;;;41.90;23.27;;;;;;;8.69;96.10;97224.63;5162907;23;20718;-84
2024/03/01 08:43:23;;;;;;;36.83;22.13;;;;;;;8.72;94.46;97227.00;5134381;23;20201;-84
2024/03/01 08:45:37;;;;;;;42.85;23.70;;;;;;;8.74;95.06;97219.91;5162147;23;20205;-82
2024/03/01 08:47:43;;;;;;;39.90;23.30;;;;;;;8.80;95.82;97231.63;5162519;23;20181;-85
2024/03/01 08:50:33;;;;;;;46.45;24.05;;;;;;;8.86;96.40;97221.56;5138737;23;20177;-85
2024/03/01 08:52:37;;;;;;;39.70;23.05;;;;;;;8.91;95.33;97221.22;5164610;23;20178;-85
2024/03/01 08:54:43;;;;;;;47.87;25.33;;;;;;;8.93;95.38;97221.00;5138923;23;20178;-86
2024/03/01 08:56:52;;;;;;;44.08;25.25;;;;;;;8.95;95.28;97216.50;5161648;23;20715;-84
2024/03/01 08:58:56;;;;;;;40.38;24.77;;;;;;;8.99;94.92;97217.09;5186812;22;20513;-83
2024/03/01 09:01:01;;;;;;;44.72;25.60;;;;;;;9.02;95.63;97220.31;5135906;23;20611;-83
2024/03/01 09:03:05;;;;;;;38.67;22.17;;;;;;;9.05;95.54;97219.22;5159904;23;20229;-83
2024/03/01 09:05:11;;;;;;;41.67;25.07;;;;;;;9.05;94.67;97222.69;5163116;23;20607;-83
2024/03/01 09:07:15;;;;;;;39.50;23.97;;;;;;;9.06;94.68;97226.91;5163297;23;20611;-83
2024/03/01 09:09:22;;;;;;;41.33;24.13;;;;;;;9.05;95.29;97227.03;5138941;23;20779;-83
2024/03/01 09:11:26;;;;;;;39.20;24.40;;;;;;;9.08;94.90;97224.19;5139224;23;20589;-82
2024/03/01 09:13:31;;;;;;;47.20;27.20;;;;;;;9.12;95.69;97223.84;5137745;23;21012;-84
2024/03/01 09:15:37;;;;;;;46.60;25.92;;;;;;;9.16;95.68;97233.06;5137507;23;20185;-83
2024/03/01 09:17:42;;;;;;;39.70;24.13;;;;;;;9.19;95.98;97238.06;5163649;23;20517;-83
2024/03/01 09:19:48;;;;;;;41.45;25.13;;;;;;;9.20;96.29;97242.31;5161353;23;20587;-83
2024/03/01 09:21:51;;;;;;;42.75;25.30;;;;;;;9.23;96.80;97239.47;5164022;23;20207;-84
2024/03/01 09:23:55;;;;;;;43.90;25.30;;;;;;;9.27;96.53;97246.09;5162071;23;20721;-82
2024/03/01 09:26:02;;;;;;;43.73;25.37;;;;;;;9.29;96.95;97243.38;5161797;23;20186;-82
2024/03/01 09:28:07;;;;;;;47.35;26.38;;;;;;;9.31;96.53;97254.50;5137353;23;20646;-83
2024/03/01 09:30:12;;;;;;;46.35;27.23;;;;;;;9.34;97.02;97249.06;5138779;23;20185;-83
2024/03/01 09:32:15;;;;;;;41.97;25.85;;;;;;;9.37;97.34;97256.59;5138285;23;20261;-83
2024/03/01 09:34:22;;;;;;;48.87;26.50;;;;;;;9.38;97.94;97256.50;5161801;23;20174;-83
2024/03/01 09:36:25;;;;;;;46.30;27.57;;;;;;;9.38;97.72;97262.53;5136574;23;20637;-82